Herron Island, Washington
Current Conditions -  °F | °C
As of 6:53 AM on Tuesday 21 Oct 2014 (Local Time) from KTIW Reporting Station
Light Rain Light Rain  
Wind Chill: 53°   Ceiling: 8000
Heat Index: 53°   Visibility: 10mi
Dew Point: 51°   Wind: 14mph
Humidity: 93%   Direction: 190°S
Pressure: 29.87"   Gusts: NA
Location:  47.264°N, 122.772°W
Report Text: KTIW 211353Z AUTO 19012KT 10SM -RA FEW050 BKN080 OVC110 12/11 A2987 RMK AO2 RAB14 SLP115 P0003 T01170106
Loading
Personal Weather Stations






























Interactive Weather Map
Tropical Storm Tracking
New forecast layout! Learn more

10-Day Weather Forecast

Advertisements
Track Severe Weather on mobile